Mohler, Washington
Current Conditions -  °F | °C
As of 9:58 AM on Thursday 30 Oct 2014 (Local Time) from KSKA Reporting Station
Overcast Overcast  
Wind Chill: 41°   Ceiling: 6000
Heat Index: 46°   Visibility: 10mi
Dew Point: 45°   Wind: 10mph
Humidity: 96%   Direction: 60°ENE
Pressure: 30.09"   Gusts: NA
Location:  47.4°N, 118.33°W
Report Text: KSKA 301658Z AUTO 06009KT 10SM OVC060 08/07 A3009 RMK AO2 RAB1606E1644DZB1642E1643 SLP200 P0000 T00800074
Loading
Personal Weather Stations






























Interactive Weather Map
Tropical Storm Tracking
New forecast layout! Learn more

10-Day Weather Forecast

Advertisements
Track Severe Weather on mobile